sensor_id;sensor_type;location;lat;lon;timestamp;P1;durP1;ratioP1;P2;durP2;ratioP2
64816;SDS011;53289;45.602;11.904;2022-08-23T00:00:46;6.05;;;4.05;;
64816;SDS011;53289;45.602;11.904;2022-08-23T00:03:12;6.05;;;4.03;;
64816;SDS011;53289;45.602;11.904;2022-08-23T00:05:38;5.35;;;3.75;;
64816;SDS011;53289;45.602;11.904;2022-08-23T00:08:04;4.93;;;3.80;;
64816;SDS011;53289;45.602;11.904;2022-08-23T00:10:30;5.55;;;3.72;;
64816;SDS011;53289;45.602;11.904;2022-08-23T00:12:57;6.30;;;3.70;;
64816;SDS011;53289;45.602;11.904;2022-08-23T00:15:23;4.95;;;3.38;;
64816;SDS011;53289;45.602;11.904;2022-08-23T00:17:49;5.70;;;3.55;;
64816;SDS011;53289;45.602;11.904;2022-08-23T00:20:16;4.78;;;3.15;;
64816;SDS011;53289;45.602;11.904;2022-08-23T00:22:44;5.45;;;3.58;;
64816;SDS011;53289;45.602;11.904;2022-08-23T00:25:12;4.25;;;3.05;;
64816;SDS011;53289;45.602;11.904;2022-08-23T00:27:40;4.15;;;3.25;;
64816;SDS011;53289;45.602;11.904;2022-08-23T00:30:07;6.18;;;3.67;;
64816;SDS011;53289;45.602;11.904;2022-08-23T00:32:37;4.82;;;3.30;;
64816;SDS011;53289;45.602;11.904;2022-08-23T00:35:04;5.22;;;3.60;;
64816;SDS011;53289;45.602;11.904;2022-08-23T00:37:33;5.70;;;3.60;;
64816;SDS011;53289;45.602;11.904;2022-08-23T00:40:00;4.93;;;3.22;;
64816;SDS011;53289;45.602;11.904;2022-08-23T00:45:32;6.57;;;3.50;;
64816;SDS011;53289;45.602;11.904;2022-08-23T00:48:29;5.68;;;3.55;;
64816;SDS011;53289;45.602;11.904;2022-08-23T00:51:10;4.97;;;3.40;;
64816;SDS011;53289;45.602;11.904;2022-08-23T00:53:41;6.38;;;4.60;;
64816;SDS011;53289;45.602;11.904;2022-08-23T00:56:11;3.72;;;3.25;;
64816;SDS011;53289;45.602;11.904;2022-08-23T00:58:39;3.80;;;3.13;;
64816;SDS011;53289;45.602;11.904;2022-08-23T01:01:07;5.13;;;3.22;;
64816;SDS011;53289;45.602;11.904;2022-08-23T01:03:35;4.68;;;3.40;;
64816;SDS011;53289;45.602;11.904;2022-08-23T01:06:06;5.75;;;3.65;;
64816;SDS011;53289;45.602;11.904;2022-08-23T01:08:45;4.22;;;3.22;;
64816;SDS011;53289;45.602;11.904;2022-08-23T01:11:20;7.57;;;4.93;;
64816;SDS011;53289;45.602;11.904;2022-08-23T01:16:32;7.10;;;4.53;;
64816;SDS011;53289;45.602;11.904;2022-08-23T01:19:21;5.57;;;4.13;;
64816;SDS011;53289;45.602;11.904;2022-08-23T01:24:46;7.47;;;4.32;;
64816;SDS011;53289;45.602;11.904;2022-08-23T01:27:12;7.18;;;4.57;;
64816;SDS011;53289;45.602;11.904;2022-08-23T01:29:39;5.28;;;3.70;;
64816;SDS011;53289;45.602;11.904;2022-08-23T01:32:06;9.38;;;5.57;;
64816;SDS011;53289;45.602;11.904;2022-08-23T01:34:33;8.57;;;6.07;;
64816;SDS011;53289;45.602;11.904;2022-08-23T01:37:02;8.27;;;5.30;;
64816;SDS011;53289;45.602;11.904;2022-08-23T01:39:31;8.32;;;6.00;;
64816;SDS011;53289;45.602;11.904;2022-08-23T01:41:58;8.10;;;4.78;;
64816;SDS011;53289;45.602;11.904;2022-08-23T01:44:24;7.72;;;5.15;;
64816;SDS011;53289;45.602;11.904;2022-08-23T01:46:51;10.18;;;6.60;;
64816;SDS011;53289;45.602;11.904;2022-08-23T01:49:18;7.35;;;5.15;;
64816;SDS011;53289;45.602;11.904;2022-08-23T01:51:44;11.73;;;6.47;;
64816;SDS011;53289;45.602;11.904;2022-08-23T01:54:11;8.73;;;6.60;;
64816;SDS011;53289;45.602;11.904;2022-08-23T01:56:37;8.98;;;6.05;;
64816;SDS011;53289;45.602;11.904;2022-08-23T01:59:06;9.88;;;7.30;;
64816;SDS011;53289;45.602;11.904;2022-08-23T02:01:34;10.02;;;7.45;;
64816;SDS011;53289;45.602;11.904;2022-08-23T02:04:01;7.18;;;5.45;;
64816;SDS011;53289;45.602;11.904;2022-08-23T02:06:27;9.07;;;6.10;;
64816;SDS011;53289;45.602;11.904;2022-08-23T02:08:53;7.45;;;5.10;;
64816;SDS011;53289;45.602;11.904;2022-08-23T02:11:26;8.43;;;6.40;;
64816;SDS011;53289;45.602;11.904;2022-08-23T02:13:58;14.25;;;7.97;;
64816;SDS011;53289;45.602;11.904;2022-08-23T02:16:29;9.93;;;5.80;;
64816;SDS011;53289;45.602;11.904;2022-08-23T02:18:58;7.95;;;5.20;;
64816;SDS011;53289;45.602;11.904;2022-08-23T02:21:27;8.35;;;5.65;;
64816;SDS011;53289;45.602;11.904;2022-08-23T02:23:58;9.15;;;6.10;;
64816;SDS011;53289;45.602;11.904;2022-08-23T02:26:30;7.67;;;4.97;;
64816;SDS011;53289;45.602;11.904;2022-08-23T02:28:56;12.77;;;7.03;;
64816;SDS011;53289;45.602;11.904;2022-08-23T02:31:22;10.07;;;6.78;;
64816;SDS011;53289;45.602;11.904;2022-08-23T02:33:50;8.45;;;5.72;;
64816;SDS011;53289;45.602;11.904;2022-08-23T02:36:16;13.30;;;7.80;;
64816;SDS011;53289;45.602;11.904;2022-08-23T02:38:42;11.05;;;7.43;;
64816;SDS011;53289;45.602;11.904;2022-08-23T02:41:08;9.40;;;5.97;;
64816;SDS011;53289;45.602;11.904;2022-08-23T02:43:34;8.48;;;5.97;;
64816;SDS011;53289;45.602;11.904;2022-08-23T02:46:02;9.32;;;5.78;;
64816;SDS011;53289;45.602;11.904;2022-08-23T02:48:33;9.43;;;6.50;;
64816;SDS011;53289;45.602;11.904;2022-08-23T02:51:00;10.50;;;6.15;;
64816;SDS011;53289;45.602;11.904;2022-08-23T02:53:29;10.27;;;6.72;;
64816;SDS011;53289;45.602;11.904;2022-08-23T02:55:56;9.45;;;5.55;;
64816;SDS011;53289;45.602;11.904;2022-08-23T02:58:22;6.95;;;5.38;;
64816;SDS011;53289;45.602;11.904;2022-08-23T03:00:49;8.27;;;5.35;;
64816;SDS011;53289;45.602;11.904;2022-08-23T03:03:15;7.07;;;5.18;;
64816;SDS011;53289;45.602;11.904;2022-08-23T03:05:41;8.57;;;5.47;;
64816;SDS011;53289;45.602;11.904;2022-08-23T03:08:08;9.15;;;6.30;;
64816;SDS011;53289;45.602;11.904;2022-08-23T03:10:35;7.85;;;5.43;;
64816;SDS011;53289;45.602;11.904;2022-08-23T03:13:06;9.18;;;5.35;;
64816;SDS011;53289;45.602;11.904;2022-08-23T03:15:31;9.93;;;7.05;;
64816;SDS011;53289;45.602;11.904;2022-08-23T03:17:58;14.98;;;8.10;;
64816;SDS011;53289;45.602;11.904;2022-08-23T03:20:24;7.45;;;5.68;;
64816;SDS011;53289;45.602;11.904;2022-08-23T03:22:50;9.20;;;5.63;;
64816;SDS011;53289;45.602;11.904;2022-08-23T03:25:16;8.43;;;5.43;;
64816;SDS011;53289;45.602;11.904;2022-08-23T03:27:42;8.77;;;4.80;;
64816;SDS011;53289;45.602;11.904;2022-08-23T03:30:09;6.78;;;5.20;;
64816;SDS011;53289;45.602;11.904;2022-08-23T03:32:35;8.20;;;5.82;;
64816;SDS011;53289;45.602;11.904;2022-08-23T03:35:01;9.48;;;5.32;;
64816;SDS011;53289;45.602;11.904;2022-08-23T03:37:28;8.85;;;5.47;;
64816;SDS011;53289;45.602;11.904;2022-08-23T03:39:54;7.18;;;5.57;;
64816;SDS011;53289;45.602;11.904;2022-08-23T03:42:20;12.02;;;7.65;;
64816;SDS011;53289;45.602;11.904;2022-08-23T03:44:46;11.63;;;7.63;;
64816;SDS011;53289;45.602;11.904;2022-08-23T03:47:12;9.65;;;5.95;;
64816;SDS011;53289;45.602;11.904;2022-08-23T03:49:38;7.18;;;5.40;;
64816;SDS011;53289;45.602;11.904;2022-08-23T03:52:04;10.07;;;5.30;;
64816;SDS011;53289;45.602;11.904;2022-08-23T03:54:31;5.88;;;4.40;;
64816;SDS011;53289;45.602;11.904;2022-08-23T03:56:59;8.50;;;5.80;;
64816;SDS011;53289;45.602;11.904;2022-08-23T03:59:28;10.60;;;7.53;;
64816;SDS011;53289;45.602;11.904;2022-08-23T04:01:57;11.18;;;7.93;;
64816;SDS011;53289;45.602;11.904;2022-08-23T04:04:23;11.27;;;7.13;;
64816;SDS011;53289;45.602;11.904;2022-08-23T04:06:49;9.60;;;5.70;;
64816;SDS011;53289;45.602;11.904;2022-08-23T04:09:15;10.88;;;7.35;;
64816;SDS011;53289;45.602;11.904;2022-08-23T04:11:42;8.93;;;6.30;;
64816;SDS011;53289;45.602;11.904;2022-08-23T04:14:09;10.15;;;5.63;;
64816;SDS011;53289;45.602;11.904;2022-08-23T04:16:37;9.48;;;6.50;;
64816;SDS011;53289;45.602;11.904;2022-08-23T04:19:05;8.98;;;5.72;;
64816;SDS011;53289;45.602;11.904;2022-08-23T04:21:33;8.38;;;5.78;;
64816;SDS011;53289;45.602;11.904;2022-08-23T04:24:02;11.18;;;7.20;;
64816;SDS011;53289;45.602;11.904;2022-08-23T04:26:29;10.07;;;6.38;;
64816;SDS011;53289;45.602;11.904;2022-08-23T04:28:55;14.02;;;8.75;;
64816;SDS011;53289;45.602;11.904;2022-08-23T04:31:21;8.93;;;6.00;;
64816;SDS011;53289;45.602;11.904;2022-08-23T04:33:51;10.95;;;6.00;;
64816;SDS011;53289;45.602;11.904;2022-08-23T04:36:18;23.23;;;9.52;;
64816;SDS011;53289;45.602;11.904;2022-08-23T04:38:45;13.25;;;7.55;;
64816;SDS011;53289;45.602;11.904;2022-08-23T04:41:11;12.07;;;8.43;;
64816;SDS011;53289;45.602;11.904;2022-08-23T04:43:56;11.68;;;8.30;;
64816;SDS011;53289;45.602;11.904;2022-08-23T04:46:22;14.13;;;8.25;;
64816;SDS011;53289;45.602;11.904;2022-08-23T04:48:48;10.63;;;7.55;;
64816;SDS011;53289;45.602;11.904;2022-08-23T04:51:14;10.65;;;6.55;;
64816;SDS011;53289;45.602;11.904;2022-08-23T04:53:40;8.02;;;5.10;;
64816;SDS011;53289;45.602;11.904;2022-08-23T04:56:07;8.68;;;5.47;;
64816;SDS011;53289;45.602;11.904;2022-08-23T04:58:34;8.18;;;5.78;;
64816;SDS011;53289;45.602;11.904;2022-08-23T05:01:04;12.68;;;7.13;;
64816;SDS011;53289;45.602;11.904;2022-08-23T05:03:32;7.25;;;5.15;;
64816;SDS011;53289;45.602;11.904;2022-08-23T05:05:59;8.75;;;6.43;;
64816;SDS011;53289;45.602;11.904;2022-08-23T05:08:26;10.20;;;5.38;;
64816;SDS011;53289;45.602;11.904;2022-08-23T05:10:52;9.38;;;6.03;;
64816;SDS011;53289;45.602;11.904;2022-08-23T05:13:19;14.18;;;5.88;;
64816;SDS011;53289;45.602;11.904;2022-08-23T05:15:45;7.55;;;5.07;;
64816;SDS011;53289;45.602;11.904;2022-08-23T05:18:11;8.88;;;5.75;;
64816;SDS011;53289;45.602;11.904;2022-08-23T05:20:37;7.40;;;5.20;;
64816;SDS011;53289;45.602;11.904;2022-08-23T05:23:04;10.07;;;5.72;;
64816;SDS011;53289;45.602;11.904;2022-08-23T05:25:30;6.80;;;5.10;;
64816;SDS011;53289;45.602;11.904;2022-08-23T05:28:18;8.80;;;5.40;;
64816;SDS011;53289;45.602;11.904;2022-08-23T05:33:36;11.20;;;7.15;;
64816;SDS011;53289;45.602;11.904;2022-08-23T05:36:03;9.73;;;7.40;;
64816;SDS011;53289;45.602;11.904;2022-08-23T05:38:31;10.63;;;6.95;;
64816;SDS011;53289;45.602;11.904;2022-08-23T05:40:58;8.18;;;5.75;;
64816;SDS011;53289;45.602;11.904;2022-08-23T05:43:26;9.23;;;5.53;;
64816;SDS011;53289;45.602;11.904;2022-08-23T05:46:06;9.77;;;6.97;;
64816;SDS011;53289;45.602;11.904;2022-08-23T05:48:35;9.32;;;6.47;;
64816;SDS011;53289;45.602;11.904;2022-08-23T05:53:42;9.25;;;6.30;;
64816;SDS011;53289;45.602;11.904;2022-08-23T05:56:09;10.25;;;6.63;;
64816;SDS011;53289;45.602;11.904;2022-08-23T05:58:40;8.23;;;5.85;;
64816;SDS011;53289;45.602;11.904;2022-08-23T06:01:07;12.20;;;7.75;;
64816;SDS011;53289;45.602;11.904;2022-08-23T06:03:34;15.00;;;9.43;;
64816;SDS011;53289;45.602;11.904;2022-08-23T06:06:01;10.73;;;8.68;;
64816;SDS011;53289;45.602;11.904;2022-08-23T06:08:28;9.57;;;6.22;;
64816;SDS011;53289;45.602;11.904;2022-08-23T06:11:02;18.00;;;13.05;;
64816;SDS011;53289;45.602;11.904;2022-08-23T06:13:30;12.38;;;9.35;;
64816;SDS011;53289;45.602;11.904;2022-08-23T06:15:57;8.77;;;6.75;;
64816;SDS011;53289;45.602;11.904;2022-08-23T06:18:24;11.00;;;8.38;;
64816;SDS011;53289;45.602;11.904;2022-08-23T06:21:04;10.80;;;8.05;;
64816;SDS011;53289;45.602;11.904;2022-08-23T06:23:31;11.32;;;6.95;;
64816;SDS011;53289;45.602;11.904;2022-08-23T06:25:58;11.93;;;6.88;;
64816;SDS011;53289;45.602;11.904;2022-08-23T06:28:28;11.40;;;7.30;;
64816;SDS011;53289;45.602;11.904;2022-08-23T06:30:55;8.65;;;5.82;;
64816;SDS011;53289;45.602;11.904;2022-08-23T06:33:21;10.15;;;6.55;;
64816;SDS011;53289;45.602;11.904;2022-08-23T06:35:48;11.80;;;7.25;;
64816;SDS011;53289;45.602;11.904;2022-08-23T06:38:15;9.05;;;6.70;;
64816;SDS011;53289;45.602;11.904;2022-08-23T06:40:42;10.90;;;7.32;;
64816;SDS011;53289;45.602;11.904;2022-08-23T06:43:08;10.93;;;7.03;;
64816;SDS011;53289;45.602;11.904;2022-08-23T06:45:35;13.98;;;7.55;;
64816;SDS011;53289;45.602;11.904;2022-08-23T06:48:01;10.02;;;7.45;;
64816;SDS011;53289;45.602;11.904;2022-08-23T06:50:27;12.82;;;8.35;;
64816;SDS011;53289;45.602;11.904;2022-08-23T06:52:53;9.50;;;6.07;;
64816;SDS011;53289;45.602;11.904;2022-08-23T06:55:19;12.23;;;6.93;;
64816;SDS011;53289;45.602;11.904;2022-08-23T06:57:45;12.70;;;8.50;;
64816;SDS011;53289;45.602;11.904;2022-08-23T07:00:11;10.95;;;8.23;;
64816;SDS011;53289;45.602;11.904;2022-08-23T07:02:37;11.32;;;7.18;;
64816;SDS011;53289;45.602;11.904;2022-08-23T07:05:04;11.43;;;7.30;;
64816;SDS011;53289;45.602;11.904;2022-08-23T07:07:30;8.98;;;5.53;;
64816;SDS011;53289;45.602;11.904;2022-08-23T07:09:56;11.68;;;6.75;;
64816;SDS011;53289;45.602;11.904;2022-08-23T07:12:22;9.07;;;6.13;;
64816;SDS011;53289;45.602;11.904;2022-08-23T07:14:47;7.95;;;5.57;;
64816;SDS011;53289;45.602;11.904;2022-08-23T07:17:14;8.75;;;6.50;;
64816;SDS011;53289;45.602;11.904;2022-08-23T07:19:40;9.60;;;6.03;;
64816;SDS011;53289;45.602;11.904;2022-08-23T07:22:08;7.45;;;4.95;;
64816;SDS011;53289;45.602;11.904;2022-08-23T07:24:34;9.77;;;6.60;;
64816;SDS011;53289;45.602;11.904;2022-08-23T07:27:03;12.70;;;7.45;;
64816;SDS011;53289;45.602;11.904;2022-08-23T07:29:37;9.38;;;6.32;;
64816;SDS011;53289;45.602;11.904;2022-08-23T07:32:04;12.02;;;7.95;;
64816;SDS011;53289;45.602;11.904;2022-08-23T07:34:30;14.68;;;8.15;;
64816;SDS011;53289;45.602;11.904;2022-08-23T07:36:57;7.88;;;5.45;;
64816;SDS011;53289;45.602;11.904;2022-08-23T07:39:23;10.82;;;7.10;;
64816;SDS011;53289;45.602;11.904;2022-08-23T07:41:50;12.02;;;7.15;;
64816;SDS011;53289;45.602;11.904;2022-08-23T07:44:16;10.98;;;7.03;;
64816;SDS011;53289;45.602;11.904;2022-08-23T07:46:44;8.73;;;6.40;;
64816;SDS011;53289;45.602;11.904;2022-08-23T07:49:11;10.45;;;6.97;;
64816;SDS011;53289;45.602;11.904;2022-08-23T07:51:38;11.27;;;5.95;;
64816;SDS011;53289;45.602;11.904;2022-08-23T07:54:07;9.80;;;6.47;;
64816;SDS011;53289;45.602;11.904;2022-08-23T07:56:35;12.20;;;7.97;;
64816;SDS011;53289;45.602;11.904;2022-08-23T07:59:01;11.60;;;8.10;;
64816;SDS011;53289;45.602;11.904;2022-08-23T08:01:28;12.88;;;8.77;;
64816;SDS011;53289;45.602;11.904;2022-08-23T08:03:55;8.98;;;5.90;;
64816;SDS011;53289;45.602;11.904;2022-08-23T08:06:27;9.52;;;6.50;;
64816;SDS011;53289;45.602;11.904;2022-08-23T08:08:54;8.60;;;5.30;;
64816;SDS011;53289;45.602;11.904;2022-08-23T08:11:23;8.80;;;5.32;;
64816;SDS011;53289;45.602;11.904;2022-08-23T08:13:52;7.30;;;4.93;;
64816;SDS011;53289;45.602;11.904;2022-08-23T08:16:29;10.23;;;5.80;;
64816;SDS011;53289;45.602;11.904;2022-08-23T08:19:00;8.70;;;5.30;;
64816;SDS011;53289;45.602;11.904;2022-08-23T08:21:28;7.72;;;5.20;;
64816;SDS011;53289;45.602;11.904;2022-08-23T08:23:55;10.23;;;6.15;;
64816;SDS011;53289;45.602;11.904;2022-08-23T08:26:21;9.45;;;6.10;;
64816;SDS011;53289;45.602;11.904;2022-08-23T08:28:49;7.57;;;5.00;;
64816;SDS011;53289;45.602;11.904;2022-08-23T08:31:15;7.07;;;4.97;;
64816;SDS011;53289;45.602;11.904;2022-08-23T08:33:41;8.57;;;4.72;;
64816;SDS011;53289;45.602;11.904;2022-08-23T08:36:07;7.85;;;4.45;;
64816;SDS011;53289;45.602;11.904;2022-08-23T08:38:51;7.60;;;4.55;;
64816;SDS011;53289;45.602;11.904;2022-08-23T08:41:18;6.55;;;4.32;;
64816;SDS011;53289;45.602;11.904;2022-08-23T08:44:07;8.13;;;5.13;;
64816;SDS011;53289;45.602;11.904;2022-08-23T08:46:45;6.32;;;3.95;;
64816;SDS011;53289;45.602;11.904;2022-08-23T08:49:16;10.80;;;6.13;;
64816;SDS011;53289;45.602;11.904;2022-08-23T08:54:18;7.47;;;4.90;;
64816;SDS011;53289;45.602;11.904;2022-08-23T08:56:50;10.50;;;4.65;;
64816;SDS011;53289;45.602;11.904;2022-08-23T08:59:19;6.38;;;4.13;;
64816;SDS011;53289;45.602;11.904;2022-08-23T09:01:48;11.35;;;5.40;;
64816;SDS011;53289;45.602;11.904;2022-08-23T09:04:15;8.85;;;6.10;;
64816;SDS011;53289;45.602;11.904;2022-08-23T09:15:02;7.53;;;4.60;;
64816;SDS011;53289;45.602;11.904;2022-08-23T09:17:53;8.90;;;4.78;;
64816;SDS011;53289;45.602;11.904;2022-08-23T09:20:25;9.80;;;5.70;;
64816;SDS011;53289;45.602;11.904;2022-08-23T09:23:07;8.05;;;5.18;;
64816;SDS011;53289;45.602;11.904;2022-08-23T09:28:03;4.38;;;3.85;;
64816;SDS011;53289;45.602;11.904;2022-08-23T09:33:20;5.32;;;3.50;;
64816;SDS011;53289;45.602;11.904;2022-08-23T09:36:34;10.60;;;5.13;;
64816;SDS011;53289;45.602;11.904;2022-08-23T09:38:59;7.68;;;4.53;;
64816;SDS011;53289;45.602;11.904;2022-08-23T09:41:35;8.32;;;4.78;;
64816;SDS011;53289;45.602;11.904;2022-08-23T09:44:05;6.03;;;3.70;;
64816;SDS011;53289;45.602;11.904;2022-08-23T09:46:35;5.85;;;4.38;;
64816;SDS011;53289;45.602;11.904;2022-08-23T09:49:22;6.13;;;4.80;;
64816;SDS011;53289;45.602;11.904;2022-08-23T09:51:52;5.88;;;4.13;;
64816;SDS011;53289;45.602;11.904;2022-08-23T09:54:29;6.80;;;4.03;;
64816;SDS011;53289;45.602;11.904;2022-08-23T09:56:59;5.15;;;3.65;;
64816;SDS011;53289;45.602;11.904;2022-08-23T09:59:40;7.10;;;4.43;;
64816;SDS011;53289;45.602;11.904;2022-08-23T10:02:14;6.00;;;4.05;;
64816;SDS011;53289;45.602;11.904;2022-08-23T10:05:03;6.53;;;3.85;;
64816;SDS011;53289;45.602;11.904;2022-08-23T10:10:50;5.00;;;3.60;;
64816;SDS011;53289;45.602;11.904;2022-08-23T10:12:55;5.05;;;4.07;;
64816;SDS011;53289;45.602;11.904;2022-08-23T10:15:47;5.97;;;4.03;;
64816;SDS011;53289;45.602;11.904;2022-08-23T10:18:45;4.95;;;4.00;;
64816;SDS011;53289;45.602;11.904;2022-08-23T10:24:19;7.57;;;3.95;;
64816;SDS011;53289;45.602;11.904;2022-08-23T10:29:40;6.32;;;3.78;;
64816;SDS011;53289;45.602;11.904;2022-08-23T10:32:20;3.97;;;2.90;;
64816;SDS011;53289;45.602;11.904;2022-08-23T10:35:13;4.38;;;3.38;;
64816;SDS011;53289;45.602;11.904;2022-08-23T10:40:27;5.93;;;3.10;;
64816;SDS011;53289;45.602;11.904;2022-08-23T10:43:12;5.35;;;3.30;;
64816;SDS011;53289;45.602;11.904;2022-08-23T10:45:55;5.25;;;3.08;;
64816;SDS011;53289;45.602;11.904;2022-08-23T10:48:25;6.63;;;3.65;;
64816;SDS011;53289;45.602;11.904;2022-08-23T10:50:55;4.10;;;3.10;;
64816;SDS011;53289;45.602;11.904;2022-08-23T10:53:46;3.13;;;2.80;;
64816;SDS011;53289;45.602;11.904;2022-08-23T10:56:33;6.20;;;3.10;;
64816;SDS011;53289;45.602;11.904;2022-08-23T11:04:24;5.97;;;3.20;;
64816;SDS011;53289;45.602;11.904;2022-08-23T11:06:59;4.63;;;2.63;;
64816;SDS011;53289;45.602;11.904;2022-08-23T11:12:53;4.05;;;2.90;;
64816;SDS011;53289;45.602;11.904;2022-08-23T11:18:01;4.90;;;3.00;;
64816;SDS011;53289;45.602;11.904;2022-08-23T11:23:20;4.97;;;2.90;;
64816;SDS011;53289;45.602;11.904;2022-08-23T11:34:34;5.05;;;2.30;;
64816;SDS011;53289;45.602;11.904;2022-08-23T11:42:25;3.20;;;2.30;;
64816;SDS011;53289;45.602;11.904;2022-08-23T11:44:56;3.17;;;2.38;;
64816;SDS011;53289;45.602;11.904;2022-08-23T11:47:38;2.25;;;2.05;;
64816;SDS011;53289;45.602;11.904;2022-08-23T11:53:08;2.35;;;2.10;;
64816;SDS011;53289;45.602;11.904;2022-08-23T11:59:14;2.72;;;2.00;;
64816;SDS011;53289;45.602;11.904;2022-08-23T12:01:37;3.55;;;2.08;;
64816;SDS011;53289;45.602;11.904;2022-08-23T12:04:05;4.70;;;2.10;;
64816;SDS011;53289;45.602;11.904;2022-08-23T12:06:50;2.15;;;1.95;;
64816;SDS011;53289;45.602;11.904;2022-08-23T12:16:54;2.95;;;1.90;;
64816;SDS011;53289;45.602;11.904;2022-08-23T12:20:07;3.85;;;2.10;;
64816;SDS011;53289;45.602;11.904;2022-08-23T12:22:20;2.47;;;1.95;;
64816;SDS011;53289;45.602;11.904;2022-08-23T12:24:56;2.72;;;2.00;;
64816;SDS011;53289;45.602;11.904;2022-08-23T12:27:31;2.58;;;1.98;;
64816;SDS011;53289;45.602;11.904;2022-08-23T12:30:09;1.80;;;1.70;;
64816;SDS011;53289;45.602;11.904;2022-08-23T12:36:28;4.32;;;1.85;;
64816;SDS011;53289;45.602;11.904;2022-08-23T12:39:19;3.58;;;2.05;;
64816;SDS011;53289;45.602;11.904;2022-08-23T12:44:29;2.70;;;2.15;;
64816;SDS011;53289;45.602;11.904;2022-08-23T12:46:56;2.50;;;1.83;;
64816;SDS011;53289;45.602;11.904;2022-08-23T12:49:33;2.67;;;1.85;;
64816;SDS011;53289;45.602;11.904;2022-08-23T12:52:02;3.25;;;2.10;;
64816;SDS011;53289;45.602;11.904;2022-08-23T12:54:44;4.50;;;2.25;;
64816;SDS011;53289;45.602;11.904;2022-08-23T12:57:18;2.70;;;2.00;;
64816;SDS011;53289;45.602;11.904;2022-08-23T13:02:53;2.85;;;1.98;;
64816;SDS011;53289;45.602;11.904;2022-08-23T13:05:48;6.25;;;2.25;;
64816;SDS011;53289;45.602;11.904;2022-08-23T13:08:24;5.13;;;1.83;;
64816;SDS011;53289;45.602;11.904;2022-08-23T13:10:53;3.72;;;2.00;;
64816;SDS011;53289;45.602;11.904;2022-08-23T13:13:24;2.78;;;2.10;;
64816;SDS011;53289;45.602;11.904;2022-08-23T13:15:55;4.05;;;1.95;;
64816;SDS011;53289;45.602;11.904;2022-08-23T13:21:14;2.47;;;1.90;;
64816;SDS011;53289;45.602;11.904;2022-08-23T13:23:51;4.20;;;1.95;;
64816;SDS011;53289;45.602;11.904;2022-08-23T13:26:33;2.42;;;1.85;;
64816;SDS011;53289;45.602;11.904;2022-08-23T13:29:19;3.53;;;2.13;;
64816;SDS011;53289;45.602;11.904;2022-08-23T13:31:58;3.08;;;1.85;;
64816;SDS011;53289;45.602;11.904;2022-08-23T13:34:36;2.72;;;1.83;;
64816;SDS011;53289;45.602;11.904;2022-08-23T13:39:46;4.03;;;1.70;;
64816;SDS011;53289;45.602;11.904;2022-08-23T13:42:33;3.67;;;1.90;;
64816;SDS011;53289;45.602;11.904;2022-08-23T13:45:05;5.45;;;2.15;;
64816;SDS011;53289;45.602;11.904;2022-08-23T13:48:09;3.92;;;2.10;;
64816;SDS011;53289;45.602;11.904;2022-08-23T13:50:39;4.15;;;1.90;;
64816;SDS011;53289;45.602;11.904;2022-08-23T13:53:06;3.58;;;1.70;;
64816;SDS011;53289;45.602;11.904;2022-08-23T13:55:33;3.95;;;2.10;;
64816;SDS011;53289;45.602;11.904;2022-08-23T13:58:09;2.90;;;1.83;;
64816;SDS011;53289;45.602;11.904;2022-08-23T14:00:37;3.40;;;1.80;;
64816;SDS011;53289;45.602;11.904;2022-08-23T14:03:04;2.13;;;1.63;;
64816;SDS011;53289;45.602;11.904;2022-08-23T14:05:32;2.85;;;1.90;;
64816;SDS011;53289;45.602;11.904;2022-08-23T14:07:58;1.88;;;1.70;;
64816;SDS011;53289;45.602;11.904;2022-08-23T14:10:25;3.38;;;1.83;;
64816;SDS011;53289;45.602;11.904;2022-08-23T14:12:52;2.50;;;1.73;;
64816;SDS011;53289;45.602;11.904;2022-08-23T14:15:19;3.13;;;2.05;;
64816;SDS011;53289;45.602;11.904;2022-08-23T14:17:47;3.20;;;1.90;;
64816;SDS011;53289;45.602;11.904;2022-08-23T14:20:16;4.97;;;1.90;;
64816;SDS011;53289;45.602;11.904;2022-08-23T14:22:43;2.85;;;1.85;;
64816;SDS011;53289;45.602;11.904;2022-08-23T14:25:09;4.22;;;2.10;;
64816;SDS011;53289;45.602;11.904;2022-08-23T14:27:37;3.45;;;1.88;;
64816;SDS011;53289;45.602;11.904;2022-08-23T14:30:06;4.10;;;2.10;;
64816;SDS011;53289;45.602;11.904;2022-08-23T14:32:36;3.45;;;2.00;;
64816;SDS011;53289;45.602;11.904;2022-08-23T14:35:05;2.17;;;1.80;;
64816;SDS011;53289;45.602;11.904;2022-08-23T14:37:32;5.93;;;1.88;;
64816;SDS011;53289;45.602;11.904;2022-08-23T14:39:58;3.30;;;2.00;;
64816;SDS011;53289;45.602;11.904;2022-08-23T14:42:24;3.85;;;1.95;;
64816;SDS011;53289;45.602;11.904;2022-08-23T14:44:50;4.28;;;2.10;;
64816;SDS011;53289;45.602;11.904;2022-08-23T14:47:17;4.75;;;2.20;;
64816;SDS011;53289;45.602;11.904;2022-08-23T14:49:43;7.82;;;2.10;;
64816;SDS011;53289;45.602;11.904;2022-08-23T14:52:10;3.72;;;2.22;;
64816;SDS011;53289;45.602;11.904;2022-08-23T14:54:38;2.30;;;1.88;;
64816;SDS011;53289;45.602;11.904;2022-08-23T14:57:04;2.35;;;1.70;;
64816;SDS011;53289;45.602;11.904;2022-08-23T14:59:31;3.20;;;2.10;;
64816;SDS011;53289;45.602;11.904;2022-08-23T15:01:57;4.00;;;1.88;;
64816;SDS011;53289;45.602;11.904;2022-08-23T15:04:24;4.90;;;2.03;;
64816;SDS011;53289;45.602;11.904;2022-08-23T15:06:50;3.67;;;1.90;;
64816;SDS011;53289;45.602;11.904;2022-08-23T15:09:19;2.80;;;2.10;;
64816;SDS011;53289;45.602;11.904;2022-08-23T15:11:46;3.75;;;2.00;;
64816;SDS011;53289;45.602;11.904;2022-08-23T15:14:12;3.75;;;1.80;;
64816;SDS011;53289;45.602;11.904;2022-08-23T15:16:38;5.97;;;1.80;;
64816;SDS011;53289;45.602;11.904;2022-08-23T15:19:04;1.95;;;1.75;;
64816;SDS011;53289;45.602;11.904;2022-08-23T15:21:31;8.05;;;1.92;;
64816;SDS011;53289;45.602;11.904;2022-08-23T15:23:57;1.90;;;1.80;;
64816;SDS011;53289;45.602;11.904;2022-08-23T15:26:24;3.15;;;1.92;;
64816;SDS011;53289;45.602;11.904;2022-08-23T15:28:53;3.15;;;1.92;;
64816;SDS011;53289;45.602;11.904;2022-08-23T15:31:19;2.40;;;1.88;;
64816;SDS011;53289;45.602;11.904;2022-08-23T15:33:45;3.17;;;1.80;;
64816;SDS011;53289;45.602;11.904;2022-08-23T15:36:13;4.32;;;2.05;;
64816;SDS011;53289;45.602;11.904;2022-08-23T15:38:41;3.05;;;1.98;;
64816;SDS011;53289;45.602;11.904;2022-08-23T15:41:08;6.03;;;2.10;;
64816;SDS011;53289;45.602;11.904;2022-08-23T15:43:34;4.15;;;1.90;;
64816;SDS011;53289;45.602;11.904;2022-08-23T15:46:06;3.75;;;1.77;;
64816;SDS011;53289;45.602;11.904;2022-08-23T15:48:35;2.15;;;1.67;;
64816;SDS011;53289;45.602;11.904;2022-08-23T15:51:10;2.65;;;1.63;;
64816;SDS011;53289;45.602;11.904;2022-08-23T15:53:37;5.00;;;1.58;;
64816;SDS011;53289;45.602;11.904;2022-08-23T15:56:07;2.88;;;1.70;;
64816;SDS011;53289;45.602;11.904;2022-08-23T15:58:35;2.65;;;1.40;;
64816;SDS011;53289;45.602;11.904;2022-08-23T16:01:03;4.10;;;1.95;;
64816;SDS011;53289;45.602;11.904;2022-08-23T16:03:29;2.13;;;1.52;;
64816;SDS011;53289;45.602;11.904;2022-08-23T16:05:55;1.55;;;1.42;;
64816;SDS011;53289;45.602;11.904;2022-08-23T16:08:25;8.77;;;1.70;;
64816;SDS011;53289;45.602;11.904;2022-08-23T16:10:54;2.55;;;1.70;;
64816;SDS011;53289;45.602;11.904;2022-08-23T16:13:22;2.05;;;1.85;;
64816;SDS011;53289;45.602;11.904;2022-08-23T16:15:49;2.92;;;1.50;;
64816;SDS011;53289;45.602;11.904;2022-08-23T16:18:15;1.88;;;1.60;;
64816;SDS011;53289;45.602;11.904;2022-08-23T16:20:41;2.97;;;1.50;;
64816;SDS011;53289;45.602;11.904;2022-08-23T16:23:08;2.88;;;1.60;;
64816;SDS011;53289;45.602;11.904;2022-08-23T16:25:34;4.50;;;1.50;;